Time,TemperatureF,DewpointF,PressureIn,WindDirection,WindDirectionDegrees,WindSpeedMPH,WindSpeedGustMPH,Humidity,HourlyPrecipIn,Conditions,Clouds,dailyrainin,SoftwareType,DateUTC
2013-05-26 00:01:00,54.0,3.0,-100.00,South,181,7.0,13.0,12,-99.99,,,-99.99,,2013-05-26 07:01:00,
2013-05-26 00:11:00,54.0,3.0,-100.00,South,185,7.0,12.0,12,-99.99,,,-99.99,,2013-05-26 07:11:00,
2013-05-26 00:21:00,54.0,4.0,-100.00,South,179,7.0,14.0,13,-99.99,,,-99.99,,2013-05-26 07:21:00,
2013-05-26 00:31:00,54.0,7.0,-100.00,South,178,8.0,14.0,15,-99.99,,,-99.99,,2013-05-26 07:31:00,
2013-05-26 00:42:00,54.0,7.0,-100.00,South,178,8.0,14.0,15,-99.99,,,-99.99,,2013-05-26 07:42:00,
2013-05-26 00:52:00,54.0,7.0,-100.00,South,178,8.0,14.0,15,-99.99,,,-99.99,,2013-05-26 07:52:00,
2013-05-26 01:01:00,53.0,10.0,-100.00,South,181,11.0,20.0,17,-99.99,,,-99.99,,2013-05-26 08:01:00,
2013-05-26 01:11:00,53.0,10.0,-100.00,South,182,9.0,17.0,17,-99.99,,,-99.99,,2013-05-26 08:11:00,
2013-05-26 01:21:00,53.0,10.0,-100.00,South,176,10.0,18.0,17,-99.99,,,-99.99,,2013-05-26 08:21:00,
2013-05-26 01:32:00,53.0,10.0,-100.00,South,171,9.0,19.0,18,-99.99,,,-99.99,,2013-05-26 08:32:00,
2013-05-26 01:42:00,53.0,10.0,-100.00,South,171,9.0,19.0,18,-99.99,,,-99.99,,2013-05-26 08:42:00,
2013-05-26 01:52:00,52.0,11.0,-100.00,South,172,7.0,15.0,19,-99.99,,,-99.99,,2013-05-26 08:52:00,
2013-05-26 02:01:00,52.0,11.0,-100.00,South,172,7.0,15.0,19,-99.99,,,-99.99,,2013-05-26 09:01:00,
2013-05-26 02:11:00,52.0,11.0,-100.00,SSE,168,7.0,17.0,19,-99.99,,,-99.99,,2013-05-26 09:11:00,
2013-05-26 02:21:00,52.0,11.0,-100.00,SSE,165,8.0,15.0,19,-99.99,,,-99.99,,2013-05-26 09:21:00,
2013-05-26 02:33:00,51.0,12.0,-100.00,SSE,167,7.0,14.0,20,-99.99,,,-99.99,,2013-05-26 09:33:00,
2013-05-26 02:42:00,51.0,12.0,-100.00,SSE,167,7.0,14.0,20,-99.99,,,-99.99,,2013-05-26 09:42:00,
2013-05-26 02:52:00,51.0,13.0,-100.00,SSE,168,7.0,14.0,21,-99.99,,,-99.99,,2013-05-26 09:52:00,
2013-05-26 03:02:00,51.0,13.0,-100.00,SSE,168,7.0,14.0,21,-99.99,,,-99.99,,2013-05-26 10:02:00,
2013-05-26 03:12:00,51.0,13.0,-100.00,South,171,8.0,15.0,21,-99.99,,,-99.99,,2013-05-26 10:12:00,
2013-05-26 03:22:00,51.0,13.0,-100.00,South,174,8.0,14.0,21,-99.99,,,-99.99,,2013-05-26 10:22:00,
2013-05-26 03:32:00,51.0,13.0,-100.00,South,176,8.0,16.0,21,-99.99,,,-99.99,,2013-05-26 10:32:00,
2013-05-26 03:52:00,50.0,13.0,-100.00,South,189,5.0,10.0,22,-99.99,,,-99.99,,2013-05-26 10:52:00,
2013-05-26 04:03:00,50.0,12.0,-100.00,South,188,4.0,11.0,22,-99.99,,,-99.99,,2013-05-26 11:03:00,
2013-05-26 04:11:00,49.0,12.0,-100.00,SSW,193,4.0,8.0,22,-99.99,,,-99.99,,2013-05-26 11:11:00,
2013-05-26 04:22:00,49.0,13.0,-100.00,SSW,192,4.0,9.0,23,-99.99,,,-99.99,,2013-05-26 11:22:00,
2013-05-26 04:32:00,50.0,12.0,-100.00,South,178,5.0,11.0,22,-99.99,,,-99.99,,2013-05-26 11:32:00,
2013-05-26 04:42:00,50.0,12.0,-100.00,South,178,5.0,11.0,22,-99.99,,,-99.99,,2013-05-26 11:42:00,
2013-05-26 04:52:00,50.0,13.0,-100.00,South,184,6.0,13.0,22,-99.99,,,-99.99,,2013-05-26 11:52:00,
2013-05-26 05:01:00,49.0,12.0,-100.00,South,185,5.0,10.0,22,-99.99,,,-99.99,,2013-05-26 12:01:00,
2013-05-26 05:11:00,49.0,12.0,-100.00,South,185,5.0,10.0,22,-99.99,,,-99.99,,2013-05-26 12:11:00,
2013-05-26 05:21:00,49.0,12.0,-100.00,South,186,5.0,14.0,22,-99.99,,,-99.99,,2013-05-26 12:21:00,
2013-05-26 05:32:00,44.0,11.0,-100.00,South,189,2.0,6.0,26,-99.99,,,-99.99,,2013-05-26 12:32:00,
2013-05-26 05:41:00,44.0,11.0,-100.00,South,189,2.0,6.0,26,-99.99,,,-99.99,,2013-05-26 12:41:00,
2013-05-26 05:52:00,43.0,11.0,-100.00,West,274,1.0,9.0,27,-99.99,,,-99.99,,2013-05-26 12:52:00,
2013-05-26 06:02:00,43.0,11.0,-100.00,West,274,1.0,9.0,27,-99.99,,,-99.99,,2013-05-26 13:02:00,
2013-05-26 06:11:00,42.0,11.0,-100.00,WNW,285,1.0,5.0,28,-99.99,,,-99.99,,2013-05-26 13:11:00,
2013-05-26 06:21:00,40.0,11.0,-100.00,North,1,1.0,5.0,30,-99.99,,,-99.99,,2013-05-26 13:21:00,
2013-05-26 06:32:00,39.0,11.0,-100.00,NW,326,1.0,3.0,31,-99.99,,,-99.99,,2013-05-26 13:32:00,
2013-05-26 06:42:00,38.0,12.0,-100.00,North,359,0.0,3.0,33,-99.99,,,-99.99,,2013-05-26 13:42:00,
2013-05-26 06:52:00,41.0,13.0,-100.00,NNW,340,1.0,4.0,31,-99.99,,,-99.99,,2013-05-26 13:52:00,
2013-05-26 07:01:00,44.0,15.0,-100.00,North,-999,0.0,0.0,31,-99.99,,,-99.99,,2013-05-26 14:01:00,
2013-05-26 07:11:00,44.0,15.0,-100.00,North,-999,0.0,0.0,31,-99.99,,,-99.99,,2013-05-26 14:11:00,
2013-05-26 07:21:00,50.0,14.0,-100.00,WSW,240,4.0,8.0,23,-99.99,,,-99.99,,2013-05-26 14:21:00,
2013-05-26 07:32:00,50.0,13.0,-100.00,SW,224,4.0,6.0,22,-99.99,,,-99.99,,2013-05-26 14:32:00,
2013-05-26 07:41:00,51.0,14.0,-100.00,WSW,241,4.0,8.0,23,-99.99,,,-99.99,,2013-05-26 14:41:00,
2013-05-26 07:51:00,51.0,15.0,-100.00,WSW,244,2.0,5.0,23,-99.99,,,-99.99,,2013-05-26 14:51:00,
2013-05-26 08:01:00,53.0,15.0,-100.00,SW,223,2.0,5.0,22,-99.99,,,-99.99,,2013-05-26 15:01:00,
2013-05-26 08:12:00,54.0,15.0,-100.00,South,182,7.0,15.0,21,-99.99,,,-99.99,,2013-05-26 15:12:00,
2013-05-26 08:22:00,54.0,15.0,-100.00,South,175,8.0,17.0,21,-99.99,,,-99.99,,2013-05-26 15:22:00,
2013-05-26 08:33:00,55.0,16.0,-100.00,SSW,192,10.0,20.0,21,-99.99,,,-99.99,,2013-05-26 15:33:00,
2013-05-26 08:43:00,55.0,16.0,-100.00,SSW,192,10.0,20.0,21,-99.99,,,-99.99,,2013-05-26 15:43:00,
2013-05-26 08:53:00,56.0,15.0,-100.00,South,191,10.0,17.0,20,-99.99,,,-99.99,,2013-05-26 15:53:00,
2013-05-26 09:03:00,56.0,14.0,-100.00,South,182,9.0,15.0,19,-99.99,,,-99.99,,2013-05-26 16:03:00,
2013-05-26 09:12:00,57.0,15.0,-100.00,South,174,9.0,18.0,19,-99.99,,,-99.99,,2013-05-26 16:12:00,
2013-05-26 09:23:00,57.0,15.0,-100.00,South,169,10.0,17.0,19,-99.99,,,-99.99,,2013-05-26 16:23:00,
2013-05-26 09:33:00,57.0,15.0,-100.00,SSE,167,11.0,19.0,19,-99.99,,,-99.99,,2013-05-26 16:33:00,
2013-05-26 09:42:00,57.0,15.0,-100.00,SSE,167,11.0,19.0,19,-99.99,,,-99.99,,2013-05-26 16:42:00,
2013-05-26 09:52:00,58.0,16.0,-100.00,SSW,198,12.0,19.0,19,-99.99,,,-99.99,,2013-05-26 16:52:00,
2013-05-26 10:02:00,58.0,15.0,-100.00,South,184,11.0,19.0,18,-99.99,,,-99.99,,2013-05-26 17:02:00,
2013-05-26 10:11:00,58.0,12.0,-100.00,SSW,192,11.0,22.0,16,-99.99,,,-99.99,,2013-05-26 17:11:00,
2013-05-26 10:22:00,59.0,14.0,-100.00,South,186,12.0,22.0,17,-99.99,,,-99.99,,2013-05-26 17:22:00,
2013-05-26 10:32:00,59.0,15.0,-100.00,South,181,12.0,21.0,17,-99.99,,,-99.99,,2013-05-26 17:32:00,
2013-05-26 10:42:00,59.0,14.0,-100.00,South,175,11.0,22.0,17,-99.99,,,-99.99,,2013-05-26 17:42:00,
2013-05-26 10:52:00,59.0,13.0,-100.00,South,179,11.0,19.0,16,-99.99,,,-99.99,,2013-05-26 17:52:00,
2013-05-26 11:01:00,60.0,15.0,-100.00,South,182,11.0,19.0,17,-99.99,,,-99.99,,2013-05-26 18:01:00,
2013-05-26 11:12:00,61.0,15.0,-100.00,South,174,10.0,19.0,16,-99.99,,,-99.99,,2013-05-26 18:12:00,
2013-05-26 11:21:00,61.0,16.0,-100.00,SSE,164,9.0,17.0,17,-99.99,,,-99.99,,2013-05-26 18:21:00,
2013-05-26 11:31:00,63.0,16.0,-100.00,South,182,10.0,20.0,16,-99.99,,,-99.99,,2013-05-26 18:31:00,
2013-05-26 11:42:00,63.0,15.0,-100.00,SSE,165,11.0,26.0,15,-99.99,,,-99.99,,2013-05-26 18:42:00,
2013-05-26 11:52:00,63.0,16.0,-100.00,South,181,11.0,19.0,16,-99.99,,,-99.99,,2013-05-26 18:52:00,
2013-05-26 12:01:00,63.0,16.0,-100.00,SSW,199,11.0,17.0,16,-99.99,,,-99.99,,2013-05-26 19:01:00,
2013-05-26 12:11:00,63.0,16.0,-100.00,South,175,10.0,19.0,16,-99.99,,,-99.99,,2013-05-26 19:11:00,
2013-05-26 12:21:00,63.0,16.0,-100.00,South,175,10.0,19.0,16,-99.99,,,-99.99,,2013-05-26 19:21:00,
2013-05-26 12:32:00,65.0,16.0,-100.00,SSE,167,11.0,28.0,15,-99.99,,,-99.99,,2013-05-26 19:32:00,
2013-05-26 12:42:00,65.0,16.0,-100.00,SSE,167,11.0,28.0,15,-99.99,,,-99.99,,2013-05-26 19:42:00,
2013-05-26 12:52:00,66.0,17.0,-100.00,SSE,167,11.0,21.0,15,-99.99,,,-99.99,,2013-05-26 19:52:00,
2013-05-26 13:02:00,66.0,17.0,-100.00,SSE,167,11.0,21.0,15,-99.99,,,-99.99,,2013-05-26 20:02:00,
2013-05-26 13:11:00,66.0,15.0,-100.00,South,191,13.0,26.0,14,-99.99,,,-99.99,,2013-05-26 20:11:00,
2013-05-26 13:21:00,67.0,18.0,-100.00,South,182,12.0,26.0,15,-99.99,,,-99.99,,2013-05-26 20:21:00,
2013-05-26 13:32:00,68.0,17.0,-100.00,South,184,14.0,27.0,14,-99.99,,,-99.99,,2013-05-26 20:32:00,
2013-05-26 13:41:00,68.0,17.0,-100.00,South,184,14.0,27.0,14,-99.99,,,-99.99,,2013-05-26 20:41:00,
2013-05-26 13:52:00,66.0,14.0,-100.00,SSW,212,15.0,26.0,13,-99.99,,,-99.99,,2013-05-26 20:52:00,
2013-05-26 14:01:00,66.0,14.0,-100.00,SSW,212,15.0,26.0,13,-99.99,,,-99.99,,2013-05-26 21:01:00,
2013-05-26 14:11:00,67.0,14.0,-100.00,SW,215,14.0,23.0,13,-99.99,,,-99.99,,2013-05-26 21:11:00,
2013-05-26 14:22:00,67.0,16.0,-100.00,SSW,195,13.0,27.0,14,-99.99,,,-99.99,,2013-05-26 21:22:00,
2013-05-26 14:33:00,67.0,16.0,-100.00,SSW,203,16.0,30.0,14,-99.99,,,-99.99,,2013-05-26 21:33:00,
2013-05-26 14:43:00,68.0,17.0,-100.00,SSW,213,15.0,26.0,14,-99.99,,,-99.99,,2013-05-26 21:43:00,
2013-05-26 14:53:00,67.0,18.0,-100.00,SSW,209,16.0,25.0,15,-99.99,,,-99.99,,2013-05-26 21:53:00,
2013-05-26 15:02:00,67.0,18.0,-100.00,SSW,209,16.0,25.0,15,-99.99,,,-99.99,,2013-05-26 22:02:00,
2013-05-26 15:12:00,68.0,17.0,-100.00,SSW,209,17.0,31.0,14,-99.99,,,-99.99,,2013-05-26 22:12:00,
2013-05-26 15:23:00,68.0,17.0,-100.00,SSW,206,18.0,28.0,14,-99.99,,,-99.99,,2013-05-26 22:23:00,
2013-05-26 15:33:00,68.0,17.0,-100.00,SSW,208,13.0,31.0,14,-99.99,,,-99.99,,2013-05-26 22:33:00,
2013-05-26 15:42:00,68.0,17.0,-100.00,SSW,208,13.0,31.0,14,-99.99,,,-99.99,,2013-05-26 22:42:00,
2013-05-26 15:53:00,67.0,16.0,-100.00,SSW,199,15.0,28.0,14,-99.99,,,-99.99,,2013-05-26 22:53:00,
2013-05-26 16:02:00,66.0,14.0,-100.00,SSW,208,15.0,28.0,13,-99.99,,,-99.99,,2013-05-26 23:02:00,
2013-05-26 16:11:00,66.0,14.0,-100.00,SSW,206,15.0,28.0,13,-99.99,,,-99.99,,2013-05-26 23:11:00,
2013-05-26 16:22:00,67.0,16.0,-100.00,SSW,203,15.0,26.0,14,-99.99,,,-99.99,,2013-05-26 23:22:00,
2013-05-26 16:32:00,67.0,16.0,-100.00,SSW,193,13.0,29.0,14,-99.99,,,-99.99,,2013-05-26 23:32:00,
2013-05-26 16:43:00,67.0,16.0,-100.00,SSW,193,13.0,29.0,14,-99.99,,,-99.99,,2013-05-26 23:43:00,
2013-05-26 16:51:00,66.0,15.0,-100.00,SSW,192,15.0,27.0,14,-99.99,,,-99.99,,2013-05-26 23:51:00,
2013-05-26 17:02:00,65.0,15.0,-100.00,SSW,195,15.0,25.0,14,-99.99,,,-99.99,,2013-05-27 00:02:00,
2013-05-26 17:11:00,66.0,15.0,-100.00,SSW,196,15.0,24.0,14,-99.99,,,-99.99,,2013-05-27 00:11:00,
2013-05-26 17:21:00,65.0,15.0,-100.00,SSW,193,14.0,26.0,14,-99.99,,,-99.99,,2013-05-27 00:21:00,
2013-05-26 17:31:00,65.0,13.0,-100.00,SSW,200,14.0,24.0,13,-99.99,,,-99.99,,2013-05-27 00:31:00,
2013-05-26 17:41:00,65.0,13.0,-100.00,SSW,200,14.0,24.0,13,-99.99,,,-99.99,,2013-05-27 00:41:00,
2013-05-26 17:52:00,65.0,15.0,-100.00,SSW,205,15.0,26.0,14,-99.99,,,-99.99,,2013-05-27 00:52:00,
2013-05-26 18:01:00,65.0,14.0,-100.00,SSW,202,15.0,23.0,14,-99.99,,,-99.99,,2013-05-27 01:01:00,
2013-05-26 18:11:00,64.0,13.0,-100.00,SSW,208,15.0,26.0,13,-99.99,,,-99.99,,2013-05-27 01:11:00,
2013-05-26 18:22:00,64.0,13.0,-100.00,SSW,212,13.0,20.0,13,-99.99,,,-99.99,,2013-05-27 01:22:00,
2013-05-26 18:31:00,64.0,11.0,-100.00,SW,226,13.0,29.0,12,-99.99,,,-99.99,,2013-05-27 01:31:00,
2013-05-26 18:42:00,64.0,11.0,-100.00,SW,226,13.0,29.0,12,-99.99,,,-99.99,,2013-05-27 01:42:00,
2013-05-26 18:52:00,64.0,8.0,-100.00,SW,220,13.0,24.0,11,-99.99,,,-99.99,,2013-05-27 01:52:00,
2013-05-26 19:01:00,64.0,8.0,-100.00,SW,219,15.0,24.0,11,-99.99,,,-99.99,,2013-05-27 02:01:00,
2013-05-26 19:11:00,64.0,9.0,-100.00,SW,222,13.0,25.0,11,-99.99,,,-99.99,,2013-05-27 02:11:00,
2013-05-26 19:21:00,63.0,8.0,-100.00,SW,219,13.0,23.0,11,-99.99,,,-99.99,,2013-05-27 02:21:00,
2013-05-26 19:32:00,63.0,8.0,-100.00,SW,222,14.0,23.0,11,-99.99,,,-99.99,,2013-05-27 02:32:00,
2013-05-26 19:42:00,63.0,8.0,-100.00,SW,222,14.0,23.0,11,-99.99,,,-99.99,,2013-05-27 02:42:00,
2013-05-26 19:52:00,63.0,8.0,-100.00,SW,222,14.0,23.0,11,-99.99,,,-99.99,,2013-05-27 02:52:00,
2013-05-26 20:02:00,62.0,7.0,-100.00,WSW,237,9.0,17.0,11,-99.99,,,-99.99,,2013-05-27 03:02:00,
2013-05-26 20:11:00,61.0,8.0,-100.00,WSW,243,9.0,16.0,12,-99.99,,,-99.99,,2013-05-27 03:11:00,
2013-05-26 20:21:00,61.0,8.0,-100.00,WSW,246,6.0,13.0,12,-99.99,,,-99.99,,2013-05-27 03:21:00,
2013-05-26 20:33:00,59.0,15.0,-100.00,WSW,258,7.0,11.0,17,-99.99,,,-99.99,,2013-05-27 03:33:00,
2013-05-26 20:42:00,59.0,15.0,-100.00,WSW,256,6.0,10.0,18,-99.99,,,-99.99,,2013-05-27 03:42:00,
2013-05-26 20:53:00,59.0,15.0,-100.00,WSW,256,6.0,10.0,18,-99.99,,,-99.99,,2013-05-27 03:53:00,
2013-05-26 21:02:00,57.0,13.0,-100.00,WNW,282,9.0,17.0,17,-99.99,,,-99.99,,2013-05-27 04:02:00,
2013-05-26 21:12:00,56.0,12.0,-100.00,WNW,282,8.0,14.0,17,-99.99,,,-99.99,,2013-05-27 04:12:00,
2013-05-26 21:22:00,56.0,10.0,-100.00,WNW,291,9.0,16.0,16,-99.99,,,-99.99,,2013-05-27 04:22:00,
2013-05-26 21:33:00,55.0,11.0,-100.00,WNW,294,7.0,16.0,17,-99.99,,,-99.99,,2013-05-27 04:33:00,
2013-05-26 21:42:00,54.0,9.0,-100.00,West,281,7.0,13.0,16,-99.99,,,-99.99,,2013-05-27 04:42:00,
2013-05-26 21:52:00,54.0,10.0,-100.00,West,281,8.0,13.0,17,-99.99,,,-99.99,,2013-05-27 04:52:00,
2013-05-26 22:02:00,54.0,10.0,-100.00,West,281,8.0,13.0,17,-99.99,,,-99.99,,2013-05-27 05:02:00,
2013-05-26 22:12:00,53.0,10.0,-100.00,West,277,6.0,12.0,17,-99.99,,,-99.99,,2013-05-27 05:12:00,
2013-05-26 22:22:00,53.0,10.0,-100.00,West,274,4.0,8.0,18,-99.99,,,-99.99,,2013-05-27 05:22:00,
2013-05-26 22:32:00,46.0,9.0,-100.00,ENE,62,4.0,8.0,22,-99.99,,,-99.99,,2013-05-27 05:32:00,
2013-05-26 22:42:00,46.0,9.0,-100.00,ENE,62,4.0,8.0,22,-99.99,,,-99.99,,2013-05-27 05:42:00,
2013-05-26 22:52:00,50.0,11.0,-100.00,ENE,78,3.0,5.0,21,-99.99,,,-99.99,,2013-05-27 05:52:00,
2013-05-26 23:01:00,50.0,11.0,-100.00,ENE,78,3.0,5.0,21,-99.99,,,-99.99,,2013-05-27 06:01:00,
2013-05-26 23:11:00,44.0,9.0,-100.00,NNE,13,1.0,5.0,24,-99.99,,,-99.99,,2013-05-27 06:11:00,
2013-05-26 23:21:00,41.0,11.0,-100.00,NE,38,1.0,2.0,28,-99.99,,,-99.99,,2013-05-27 06:21:00,
2013-05-26 23:32:00,40.0,10.0,-100.00,ESE,102,1.0,3.0,29,-99.99,,,-99.99,,2013-05-27 06:32:00,
2013-05-26 23:41:00,38.0,10.0,-100.00,ESE,103,1.0,3.0,31,-99.99,,,-99.99,,2013-05-27 06:41:00,